createdAt,value
2018-03-23T08:21:59.563Z,55.87
2018-03-23T08:24:27.914Z,56.37
2018-03-23T08:27:03.705Z,54.19
2018-03-23T08:29:32.063Z,53.69
2018-03-23T08:32:00.408Z,53.22
2018-03-23T08:34:47.838Z,53.04
2018-03-23T08:40:08.474Z,52.35
2018-03-23T08:42:36.798Z,51.19
2018-03-23T08:45:08.868Z,51.90
2018-03-23T08:47:45.099Z,50.62
2018-03-23T08:50:13.303Z,50.56
2018-03-23T08:52:41.634Z,50.27
2018-03-23T08:55:32.601Z,50.50
2018-03-23T08:58:14.904Z,50.38
2018-03-23T09:00:43.226Z,50.25
2018-03-23T09:03:11.794Z,50.76
2018-03-23T09:05:40.161Z,50.66
2018-03-23T09:08:08.511Z,50.48
2018-03-23T09:10:36.847Z,50.18
2018-03-23T09:13:05.181Z,50.19
2018-03-23T09:15:33.507Z,50.30
2018-03-23T09:18:01.876Z,50.07
2018-03-23T09:20:30.232Z,49.95
2018-03-23T09:22:58.721Z,49.75
2018-03-23T09:25:30.060Z,49.04
2018-03-23T09:27:58.371Z,49.27
2018-03-23T09:30:26.753Z,49.15
2018-03-23T09:33:05.377Z,50.06
2018-03-23T09:41:29.583Z,52.75
2018-03-23T09:46:48.871Z,51.02
2018-03-23T09:49:17.234Z,51.09
2018-03-23T09:51:45.593Z,51.08
2018-03-23T09:54:13.974Z,51.35
2018-03-23T09:56:42.335Z,50.74
2018-03-23T13:29:11.199Z,54.22
2018-03-23T13:31:39.563Z,54.35
2018-03-23T13:34:08.267Z,54.51
2018-03-23T13:36:36.614Z,54.62
2018-03-23T13:39:04.585Z,54.80
2018-03-23T13:41:33.056Z,55.11
2018-03-23T13:44:01.529Z,55.25
2018-03-23T13:46:29.849Z,55.77
2018-03-23T13:48:58.225Z,55.97
2018-03-23T13:51:26.545Z,56.43
2018-03-23T13:53:54.871Z,57.35
2018-03-23T13:56:23.194Z,56.86
2018-03-23T13:59:04.819Z,57.47
2018-03-23T14:01:38.640Z,57.35
2018-03-23T14:04:25.839Z,57.63
2018-03-23T14:06:54.177Z,57.55
2018-03-23T14:09:22.511Z,57.89
2018-03-23T14:11:50.860Z,58.02
2018-03-23T14:14:19.314Z,57.80
2018-03-23T14:17:09.757Z,57.90
2018-03-23T14:19:53.963Z,58.04
2018-03-23T14:22:22.360Z,58.67
2018-03-23T14:24:50.903Z,58.72
2018-03-23T14:27:19.266Z,58.63
2018-03-23T14:29:47.615Z,58.99
2018-03-23T14:32:15.958Z,58.98
2018-03-23T14:34:56.864Z,59.30
2018-03-23T14:37:25.211Z,59.29
2018-03-23T14:39:53.526Z,59.84
2018-03-23T14:42:21.886Z,59.92
2018-03-23T14:44:50.247Z,59.85
2018-03-23T18:43:16.631Z,72.50
2018-03-23T18:45:45.105Z,72.52
2018-03-23T18:48:13.459Z,72.79
2018-03-23T18:51:00.488Z,73.00
2018-03-23T18:53:28.907Z,73.16
2018-03-23T18:56:02.975Z,73.03
2018-03-23T18:58:31.392Z,72.45
2018-03-23T19:00:59.802Z,72.54
2018-03-23T19:03:28.271Z,73.11
2018-03-23T19:05:58.254Z,72.85
2018-03-23T19:08:26.874Z,72.48
2018-03-23T19:10:55.295Z,72.86
2018-03-23T19:13:23.617Z,73.05
2018-03-23T19:15:51.963Z,73.17
2018-03-23T19:21:15.091Z,73.14
2018-03-23T19:23:43.172Z,73.15
2018-03-23T19:26:11.511Z,73.02
2018-03-23T19:28:39.862Z,73.44
2018-03-23T19:31:08.206Z,73.06
2018-03-23T19:33:36.537Z,73.73
2018-03-23T19:36:04.872Z,73.88
2018-03-23T19:38:33.223Z,73.40
2018-03-23T19:41:01.577Z,73.78
2018-03-23T19:43:29.968Z,73.93
2018-03-23T19:45:58.920Z,74.06
2018-03-23T19:48:27.251Z,74.31
2018-03-23T19:50:55.588Z,74.81
2018-03-23T19:53:23.925Z,74.77
2018-03-23T19:55:52.257Z,74.39
2018-03-23T19:58:20.620Z,74.41
2018-03-23T20:00:48.975Z,74.32
2018-03-23T20:03:17.332Z,74.76
2018-03-23T20:05:45.688Z,74.58
2018-03-23T20:08:14.011Z,73.79
2018-03-23T20:10:42.359Z,73.92
2018-03-23T20:13:10.735Z,74.02
2018-03-23T20:15:39.169Z,74.32
2018-03-23T20:18:12.929Z,74.13
2018-03-23T20:20:58.943Z,73.82
2018-03-23T20:23:27.282Z,73.73
2018-03-23T20:31:43.148Z,74.58
2018-03-23T20:34:11.473Z,75.31
2018-03-23T20:36:39.832Z,75.63
2018-03-23T20:39:08.186Z,75.86
2018-03-23T20:41:46.779Z,75.54
2018-03-23T20:47:20.249Z,75.56
2018-03-23T20:49:48.567Z,75.52
2018-03-23T20:52:17.843Z,75.57
2018-03-23T20:54:46.185Z,75.95
2018-03-23T20:57:14.512Z,76.74
2018-03-23T20:59:46.571Z,76.68
2018-03-23T21:02:15.017Z,76.40
2018-03-23T21:04:43.433Z,76.17
2018-03-23T21:07:11.775Z,75.90
2018-03-23T21:09:40.304Z,75.51
2018-03-23T21:12:08.642Z,75.33
2018-03-23T21:14:36.831Z,74.79
2018-03-23T21:17:05.007Z,75.67
2018-03-23T21:19:33.342Z,75.60
2018-03-23T21:22:01.719Z,75.19
2018-03-23T21:24:30.230Z,76.33
2018-03-23T21:26:58.602Z,75.59
2018-03-23T21:29:26.935Z,75.37
2018-03-23T21:31:55.266Z,75.00
2018-03-23T21:34:23.668Z,75.16
2018-03-23T21:37:06.264Z,75.94
2018-03-23T21:42:23.751Z,75.18
2018-03-23T21:44:52.080Z,74.38
2018-03-23T21:47:32.205Z,73.82
2018-03-23T21:50:00.558Z,74.59
2018-03-23T21:52:28.903Z,74.71
2018-03-23T21:57:51.683Z,74.74
2018-03-23T22:00:20.011Z,74.01
2018-03-23T22:02:48.374Z,73.08
2018-03-23T22:05:16.701Z,73.22
2018-03-23T22:07:45.024Z,73.19
2018-03-23T22:13:05.996Z,73.49
2018-03-23T22:15:34.343Z,73.49
2018-03-23T22:18:08.299Z,74.12
2018-03-23T22:20:54.628Z,73.60
2018-03-23T22:23:22.983Z,73.06
2018-03-23T22:25:51.305Z,72.81
2018-03-23T22:28:19.635Z,72.43
2018-03-23T22:30:47.985Z,72.34
2018-03-23T22:33:16.122Z,72.51
2018-03-23T22:35:44.481Z,72.48
2018-03-23T23:27:21.839Z,71.97
2018-03-23T23:29:50.159Z,71.87
2018-03-23T23:32:18.491Z,72.04
2018-03-23T23:34:46.802Z,72.52
2018-03-23T23:37:15.257Z,71.87
2018-03-23T23:39:43.558Z,72.30
2018-03-23T23:42:11.884Z,72.11
2018-03-23T23:44:45.667Z,72.76
2018-03-23T23:47:13.997Z,72.66
2018-03-23T23:49:42.349Z,72.62
2018-03-23T23:52:10.691Z,72.85
2018-03-23T23:54:39.028Z,72.71
2018-03-23T23:57:07.355Z,73.42
2018-03-23T23:59:35.674Z,73.00
